FSIA/SEZ METAR and TAF weather

Enter ICAO airport designator
Station Type Date Time Source
FSIA METAR 2020/07/02 19:00 UTC NOAA

FSIA 021900Z 13008G19KT 080V220 9999 SCT020 27/24 Q1010 NOSIG


Station Type Date Time Source
FSIA Decoded METAR 2020/07/02 19:00 UTC NOAA

Seychelles Inter-National Airport, Seychelles (FSIA) 04-40S 055-31E 3M
Jul 02, 2020 - 03:00 PM EDT / 2020.07.02 1900 UTC
Wind: from the SE (130 degrees) at 9 MPH (8 KT) gusting to 22 MPH (19 KT) (direction variable):0
Visibility: greater than 7 mile(s):0
Sky conditions: partly cloudy
Temperature: 80 F (27 C)
Dew Point: 75 F (24 C)
Relative Humidity: 83%
Pressure (altimeter): 29.83 in. Hg (1010 hPa)
ob: FSIA 021900Z 13008G19KT 080V220 9999 SCT020 27/24 Q1010 NOSIG
cycle: 19

Station Type Date Time Source
FSIA TAF 2020/07/02 12:12 UTC NOAA

TAF TAF FSIA 021101Z 0212/0312 17015G25KT 9999 FEW018CB SCT022
TEMPO 0212/0218 8000 -SHRA FEW010 FEW016CB BKN018
TEMPO 0222/0302 8000 SHRA FEW008 FEW015CB BKN016

Example: see airport list